CST,Max TemperatureF,Mean TemperatureF,Min TemperatureF,Max Dew PointF,MeanDew PointF,Min DewpointF,Max Humidity, Mean Humidity, Min Humidity, Max Sea Level PressureIn, Mean Sea Level PressureIn, Min Sea Level PressureIn, Max VisibilityMiles, Mean VisibilityMiles, Min VisibilityMiles, Max Wind SpeedMPH, Mean Wind SpeedMPH, Max Gust SpeedMPH,PrecipitationIn, CloudCover, Events, WindDirDegrees
2012-11-1,44,35,25,34,26,19,79,61,43,30.12,30.04,29.96,10,10,9,21,10,0,0.00,4,,343
2012-11-2,38,28,18,26,22,16,92,72,52,30.23,30.19,30.14,10,10,10,9,2,13,0.00,4,,11
2012-11-3,39,36,32,29,26,23,75,70,64,30.28,30.25,30.22,10,10,9,7,2,9,T,8,Snow,91
2012-11-4,42,35,28,32,27,24,85,68,51,30.28,30.23,30.14,10,10,7,12,4,16,T,8,,77
2012-11-5,41,37,32,39,33,27,100,85,70,30.25,30.13,29.95,10,5,2,14,7,18,0.03,8,Rain,125
2012-11-6,42,38,34,36,34,30,96,83,70,30.04,29.86,29.73,10,8,2,23,12,32,0.28,8,Rain-Snow,290
2012-11-7,48,43,37,34,32,29,85,66,46,30.15,30.09,30.03,10,10,10,13,6,17,0.00,5,,246
2012-11-8,51,42,33,35,33,30,85,69,52,30.09,30.00,29.96,10,10,5,17,7,21,0.00,0,,173
2012-11-9,46,38,29,37,35,28,100,85,70,30.11,30.04,29.93,10,9,2,18,11,28,0.00,5,,60
2012-11-10,51,46,41,49,44,36,100,88,76,29.93,29.61,29.46,10,2,0,30,8,37,0.57,7,Fog-Rain,99
2012-11-11,51,36,20,48,25,9,89,76,62,29.97,29.76,29.46,10,9,2,23,15,31,T,8,Snow,268
2012-11-12,25,21,17,16,13,10,84,72,60,30.34,30.06,29.89,10,8,1,23,13,29,0.15,6,Snow,265
2012-11-13,43,28,13,27,19,10,88,66,43,30.38,30.34,30.29,10,10,10,14,5,16,0.00,3,,161
2012-11-14,51,39,26,30,28,24,92,67,41,30.30,30.24,30.16,10,10,9,12,5,15,0.00,3,,155
2012-11-15,47,33,19,32,22,11,92,64,36,30.53,30.31,30.13,10,9,2,17,5,22,0.00,1,,335
2012-11-16,42,28,13,23,14,10,92,63,33,30.55,30.46,30.33,10,10,10,14,5,16,0.00,0,,140
2012-11-17,56,44,31,36,32,24,82,63,43,30.32,30.24,30.18,10,10,9,21,12,26,0.00,2,,160
2012-11-18,57,48,39,34,33,30,70,56,41,30.17,30.10,30.05,10,10,10,21,12,26,0.00,2,,161
2012-11-19,58,48,38,37,35,33,85,66,47,30.13,30.07,30.03,10,10,7,15,7,18,0.00,2,,180
2012-11-20,48,37,25,34,30,26,92,76,60,30.24,30.16,30.04,10,4,0,9,4,10,0.00,1,Fog,313
2012-11-21,56,44,32,41,35,29,89,68,47,30.01,29.88,29.66,10,10,8,14,7,18,0.00,0,,153
2012-11-22,54,38,21,41,28,15,92,78,64,30.05,29.84,29.60,10,4,1,30,15,39,0.14,6,Snow,287
2012-11-23,25,16,6,16,11,4,80,70,60,30.47,30.26,29.99,10,7,2,32,17,43,0.01,4,Snow,312
2012-11-24,28,14,0,20,10,-3,92,80,68,30.43,30.13,29.79,10,10,10,16,5,18,0.00,5,,153
2012-11-25,29,21,13,22,18,5,81,70,59,30.26,30.03,29.88,10,10,7,22,10,28,T,7,Snow,306
2012-11-26,19,11,3,7,3,-2,86,69,51,30.50,30.42,30.29,10,10,10,16,7,20,0.00,1,,279
2012-11-27,37,24,11,24,16,6,84,73,61,30.37,30.23,30.10,10,10,10,13,8,16,T,4,,255
2012-11-28,34,29,24,24,21,17,78,71,63,30.38,30.27,30.12,10,10,8,17,7,21,0.00,4,,197
2012-11-29,36,28,19,25,22,18,91,78,64,30.20,30.15,30.09,10,8,4,16,7,23,0.00,2,,61
2012-11-30,33,30,26,30,26,21,89,81,72,30.25,30.15,30.02,10,6,2,16,8,22,0.00,7,,97